福岡空港の過去48時間の天気

福岡空港 (Fukuoka)

現在時刻: 10/20 03:38 JST (10/19 18:38 UTC) 以下の時間は現地時間です。

過去48時間のMETAR気象情報
時間 風向 風速(m/s) 視程 気温(℃) 湿度(%) 気圧(hPa) 天気現象
20 03:00 静穏 0 10km以上 15 82 1022
20 02:30 不定 1 10km以上 15 88 1022
20 02:00 不定 1 10km以上 14 88 1022
20 01:30 北北東 2 10km以上 16 77 1022
20 01:00 北北東 3 10km以上 17 72 1022
20 00:30 北東 2 10km以上 16 82 1022
20 00:00 不定 1 10km以上 16 82 1022
19 23:30 東北東 2 10km以上 16 82 1022
19 23:00 2 10km以上 16 82 1022 弱い雨
19 22:30 不定 1 10km以上 17 72 1022 周辺でしゅう雨
19 22:00 東北東 2 10km以上 16 77 1022 周辺でしゅう雨
19 21:30 北東 2 10km以上 17 77 1022 周辺でしゅう雨
19 21:00 3 10km以上 17 72 1022 弱いしゅう雨
19 20:30 不定 1 10km以上 17 72 1021
19 20:00 北北東 3 10km以上 17 72 1021
19 19:30 北東 2 10km以上 17 77 1021
19 19:00 北北東 4 10km以上 17 77 1020
19 18:30 北北東 2 10km以上 16 82 1020
19 18:00 北北東 5 10km以上 16 82 1020 周辺でしゅう雨
19 17:30 7 10km以上 18 73 1020 弱いしゅう雨
19 17:00 6 10km以上 18 73 1019
19 16:30 6 10km以上 19 73 1019
19 16:00 6 10km以上 18 73 1019 周辺でしゅう雨
19 15:30 7 10km以上 17 77 1019 弱いしゅう雨
19 15:04 北北西 8 10km以上 19 64 1019 弱いしゅう雨
19 15:00 北北西 8 10km以上 19 64 1019 弱いしゅう雨
19 14:33 北北西 10 10km以上 20 60 1019
19 14:30 北北西 10 10km以上 21 56 1019
19 14:00 10 10km以上 21 56 1019
19 13:33 9 10km以上 19 64 1019 周辺でしゅう雨
19 13:26 8 10km以上 19 64 1019 周辺でしゅう雨
19 13:00 8 10km以上 19 68 1019
19 12:30 7 10km以上 19 64 1019 周辺でしゅう雨
19 12:08 8 10km以上 20 60 1019 周辺でしゅう雨
19 12:00 北北西 7 10km以上 20 60 1019 周辺でしゅう雨
19 11:30 北北西 7 10km以上 19 68 1019 弱いしゅう雨
19 11:00 不定 2 10km以上 18 77 1020 周辺でしゅう雨
19 10:30 北北西 2 10km以上 17 77 1020 弱いしゅう雨
19 10:00 北北西 5 10km以上 20 60 1020 弱いしゅう雨
19 09:30 北北西 8 10km以上 18 73 1020 周辺でしゅう雨
19 09:00 北西 4 10km以上 18 73 1020 周辺でしゅう雨
19 08:30 北北西 6 10km以上 18 68 1019 周辺でしゅう雨
19 08:00 北北東 2 10km以上 17 72 1019
19 07:30 東北東 3 10km以上 17 77 1019
19 07:00 不定 1 10km以上 14 88 1019
19 06:30 不定 1 10km以上 15 82 1019
19 06:00 南東 2 10km以上 14 94 1019
19 05:30 南東 2 10km以上 14 94 1018
19 05:00 南東 2 10km以上 14 94 1018
19 04:43 不定 1 10km以上 14 94 1018
19 04:35 南南東 2 10km以上 14 94 1018
19 04:30 南南東 2 4300m 14 94 1018 雨 もや
19 04:19 南南東 3 4000m 14 94 1018 雨 もや
19 04:08 3 1500m 14 88 1018 強い雨 もや
19 04:02 3 2300m 14 88 1018 雨 もや
19 03:49 南南西 2 1700m 14 94 1018 雨 もや
19 03:36 不定 1 1200m 14 94 1018 強い雨 もや
19 03:30 静穏 0 1400m 14 94 1018 雨 もや
19 03:18 静穏 0 200m 15 88 1018 強い雨 もや
19 03:06 不定 1 1000m 15 88 1018 雨 もや
19 02:50 不定 1 1700m 15 88 1018 雨 もや
19 02:37 不定 1 2200m 15 88 1018 雨 もや
19 02:30 不定 1 5000m 15 88 1018 弱い雨 もや
19 02:07 不定 1 8000m 15 88 1018 弱い雨
19 02:00 不定 1 6000m 15 88 1018 弱い雨
19 01:30 3 10km以上 16 82 1018
19 01:00 北北西 3 10km以上 16 82 1017 弱い雨
19 00:50 北西 3 7000m 16 88 1018 弱い雨
19 00:36 北西 4 1100m 16 88 1017 弱い雨 もや
19 00:30 西北西 4 5000m 17 77 1017 弱い雨 もや
19 00:00 南南東 2 10km以上 16 77 1017
18 23:30 南南西 2 10km以上 17 68 1017
18 23:00 西南西 2 10km以上 17 72 1017
18 22:30 静穏 0 10km以上 17 68 1017
18 22:00 北北東 2 10km以上 17 68 1017
18 21:30 3 10km以上 18 64 1016
18 21:00 西北西 2 10km以上 19 64 1016 周辺でしゅう雨
18 20:30 西北西 2 10km以上 19 64 1016 雷 周辺でしゅう雨
18 20:00 不定 1 10km以上 18 68 1016
18 19:30 東北東 2 10km以上 19 64 1016
18 19:00 北東 2 10km以上 19 64 1016
18 18:30 2 10km以上 20 60 1015
18 18:00 北北西 3 10km以上 20 56 1015
18 17:30 2 10km以上 20 56 1015
18 17:00 北西 3 10km以上 20 56 1015
18 16:30 北西 3 10km以上 21 53 1015
18 16:00 北北西 4 10km以上 20 56 1015
18 15:30 北西 4 10km以上 21 53 1015
18 15:00 3 10km以上 22 50 1014
18 14:30 北西 4 10km以上 22 50 1014
18 14:00 北西 4 10km以上 22 46 1014
18 13:30 5 10km以上 22 53 1014
18 13:00 北西 4 10km以上 22 53 1014
18 12:30 北北西 5 10km以上 22 57 1015
18 12:00 北西 4 10km以上 22 50 1015
18 11:30 不定 2 10km以上 21 60 1015
18 11:00 北西 3 10km以上 21 56 1015
18 10:30 不定 2 10km以上 21 56 1015
18 10:00 南南東 2 10km以上 20 60 1016
18 09:30 南南東 3 10km以上 19 64 1016
18 09:00 南南東 2 10km以上 18 73 1016
18 08:30 3 10km以上 16 77 1016
18 08:00 南南東 3 10km以上 15 82 1016
18 07:30 南南東 2 10km以上 15 82 1015
18 07:00 南東 1 10km以上 14 82 1015
18 06:30 不定 1 10km以上 14 82 1015
18 06:00 東南東 1 10km以上 14 82 1015
18 05:30 南東 1 10km以上 14 82 1015
18 05:00 東南東 2 10km以上 14 82 1014
18 04:30 南東 2 10km以上 14 82 1014
18 04:00 南東 2 10km以上 13 88 1014
RJFF 191800Z AUTO 00000KT 9999 NSC 15/12 Q1022 BECMG 14005KT
RJFF 191730Z AUTO VRB01KT 9999 SCT045 BKN050 15/13 Q1022 NOSIG RMK A3020
RJFF 191700Z AUTO VRB01KT 9999 SCT042 SCT050 14/12 Q1022 NOSIG RMK A3020
RJFF 191630Z AUTO 03004KT 360V070 9999 FEW041 BKN060 16/12 Q1022 NOSIG RMK A3020
RJFF 191600Z AUTO 03005KT 9999 FEW038 SCT043 BKN045 17/12 Q1022 NOSIG RMK A3019
RJFF 191530Z AUTO 04004KT 350V100 9999 BKN036 BKN042 16/13 Q1022 NOSIG RMK A3019
RJFF 191500Z AUTO VRB02KT 9999 BKN035 BKN040 BKN046 16/13 Q1022 BECMG 36007KT RMK A3019
RJFF 191430Z AUTO 06003KT 020V100 9999 SCT033 BKN037 BKN070 //////TCU 16/13 Q1022 BECMG 36007KT
RJFF 191400Z AUTO 35004KT 310V050 9999 -RA FEW029 SCT031 BKN039 16/13 Q1022 NOSIG RMK A3019
RJFF 191330Z VRB02KT 9999 VCSH FEW025 BKN040 17/12 Q1022 BECMG 01007KT
RJFF 191300Z 06003KT 020V130 9999 VCSH FEW020 SCT040 16/12 Q1022 BECMG 01007KT
RJFF 191230Z 05003KT 010V110 9999 VCSH FEW020 BKN035 17/13 Q1022 NOSIG RMK 1CU020 5CU035 A3019
RJFF 191200Z 10006KT 9999 -SHRA FEW020 BKN035 17/12 Q1022 BECMG 01007KT
RJFF 191130Z VRB02KT 9999 FEW020 SCT035 17/12 Q1021 BECMG 01007KT
RJFF 191100Z 02006KT 330V100 9999 FEW015 SCT035 17/12 Q1021 NOSIG RMK 1CU015 3CU035 A3016
RJFF 191030Z 04004KT 350V120 9999 FEW015 17/13 Q1021 NOSIG RMK 1CU015 A3016
RJFF 191000Z 02008KT 340V090 9999 FEW020 17/13 Q1020 NOSIG RMK 1CU020 A3015
RJFF 190930Z 03004KT 320V090 9999 FEW015 BKN040 16/13 Q1020 NOSIG RMK 1CU015 5CU040 A3014
RJFF 190900Z 02009KT 9999 VCSH FEW005 SCT020 BKN035 16/13 Q1020 NOSIG RMK 1ST005 3CU020 6CU035 A3014
RJFF 190830Z 36013KT 9999 -SHRA FEW015 SCT025 BKN035 18/13 Q1020 NOSIG RMK 1CU015 3CU025 6CU035 A3013
RJFF 190800Z 36011KT 9999 FEW015 SCT025 18/13 Q1019 NOSIG RMK 1CU015 3CU025 A3012
RJFF 190730Z 01012KT 330V030 9999 FEW015 SCT025 BKN045 19/14 Q1019 TEMPO TL0800 36018G28KT
RJFF 190700Z 36012KT 9999 VCSH FEW015 SCT025 BKN045 18/13 Q1019 TEMPO TL0800 36018G28KT
RJFF 190630Z 35014KT 9999 -SHRA FEW015 SCT025 BKN040 17/13 Q1019 TEMPO TL0800 36018G28KT
RJFF 190604Z 34015G25KT 9999 -SHRA FEW015 BKN040 19/12 Q1019 RMK 1CU015 6CU040 A3010
RJFF 190600Z 34015KT 9999 -SHRA FEW015 BKN040 19/12 Q1019 TEMPO 36018G28KT
RJFF 190533Z 34020G30KT 9999 FEW015 BKN035 20/12 Q1019 RMK 1CU015 5CU035 A3009
RJFF 190530Z 34019KT 9999 FEW015 SCT035 21/12 Q1019 TEMPO 34019G29KT
RJFF 190500Z 35019KT 9999 FEW015 BKN035 21/12 Q1019 TEMPO 35019G29KT
RJFF 190433Z 36018G28KT 9999 VCSH FEW015 SCT030 19/12 Q1019 RMK 1CU015 4CU030 A3010
RJFF 190426Z 35016G26KT 9999 VCSH FEW015 SCT030 BKN035 19/12 Q1019 RMK 1CU015 3CU030 5CU035 A3010
RJFF 190400Z 36016KT 9999 FEW015 SCT030 BKN035 19/13 Q1019 NOSIG RMK 1CU015 3CU030 5CU035 A3010
RJFF 190330Z 35013KT 9999 VCSH FEW015 SCT030 BKN035 19/12 Q1019 TEMPO TL0500 4000 SHRA BR
RJFF 190308Z 35015G25KT 9999 VCSH FEW020 SCT030 BKN035 20/12 Q1019 RMK 1CU020 3CU030 5CU035 A3011
RJFF 190300Z 34013KT 9999 VCSH FEW020 SCT030 BKN035 20/12 Q1019 TEMPO 4000 SHRA BR
RJFF 190230Z 34014KT 310V020 9999 -SHRA FEW020 SCT030 BKN040 19/13 Q1019 TEMPO 4000 SHRA BR
RJFF 190200Z VRB03KT 9999 VCSH FEW010 SCT035 BKN040 18/14 Q1020 TEMPO 4000 SHRA BR BECMG 35014KT RMK 1ST010 3CU035 5CU040 A3012
RJFF 190130Z 34004KT 280V030 9999 -SHRA FEW010 SCT025 BKN035 17/13 Q1020 TEMPO 4000 SHRA BR BECMG 35014KT RMK 1ST010 3CU025 6CU035 A3013
RJFF 190100Z 33010KT 9999 -SHRA FEW008 FEW030TCU BKN040 20/12 Q1020 TEMPO 4000 SHRA BR
RJFF 190030Z 33016KT 9999 VCSH FEW008 SCT030 BKN040 18/13 Q1020 NOSIG RMK 1ST008 3CU030 5CU040 A3012
RJFF 190000Z 31007KT 270V360 9999 VCSH FEW008 SCT025 BKN030 18/13 Q1020 NOSIG RMK 1ST008 3CU025 5CU030 A3012
RJFF 182330Z 33012KT 9999 VCSH FEW010 SCT030 18/12 Q1019 NOSIG RMK 1CU010 3CU030 A3011
RJFF 182300Z 03004KT 320V100 9999 FEW015 BKN070 17/12 Q1019 BECMG TL0000 33010KT
RJFF 182230Z 07005KT 030V120 9999 FEW015 SCT060 17/13 Q1019 BECMG 33010KT RMK 1CU015 3SC060 A3010
RJFF 182200Z VRB01KT 9999 FEW015 14/12 Q1019 BECMG 33010KT
RJFF 182130Z VRB01KT 9999 FEW010 SCT030 15/12 Q1019 BECMG 31009KT
RJFF 182100Z 13003KT 110V170 9999 FEW008 SCT035 14/13 Q1019 BECMG 31009KT
RJFF 182030Z AUTO 13003KT 9999 FEW030 SCT040 BKN050 14/13 Q1018 BECMG 31009KT RMK A3009
RJFF 182000Z AUTO 14003KT 090V190 9999 FEW005 SCT021 BKN048 14/13 Q1018 BECMG 31009KT
RJFF 181943Z AUTO VRB02KT 9999 FEW005 SCT007 BKN028 14/13 Q1018 RMK A3008
RJFF 181935Z AUTO 15003KT 120V180 9999 RA FEW005 SCT026 BKN030 14/13 Q1018 RMK A3008 RI005
RJFF 181930Z AUTO 15004KT 4300 RA BR FEW017 SCT026 BKN031 //////TCU 14/13 Q1018 TEMPO 3000 SHRA BR BECMG 31005KT RMK A3008 RI005 TCU 35KM NE MOV UNKNOWN
RJFF 181919Z AUTO 15005KT 4000 RA BR FEW014 SCT028 BKN033 14/13 Q1018 RMK A3008 RI004
RJFF 181908Z AUTO 17005KT 1500 R16/P2000N +RA BR FEW004 SCT029 BKN035 14/12 Q1018 RMK A3007 RI015
RJFF 181902Z AUTO 18005KT 2300 RA BR FEW004 SCT029 BKN035 14/12 Q1018 RMK A3007 RI005
RJFF 181849Z AUTO 21004KT 180V250 1700 R16/P2000N RA BR FEW004 SCT024 BKN030 14/13 Q1018 RMK A3008 RI005
RJFF 181836Z AUTO VRB01KT 1200 R16/1000VP2000D +RA BR FEW008 SCT022 BKN024 //////TCU 14/13 Q1018 RMK A3008 RI030 TCU OHD MOV UNKNOWN
RJFF 181830Z AUTO 00000KT 1400 R16/0700VP2000U RA BR FEW012 SCT022 BKN030 14/13 Q1018 BECMG 31005KT 3000 SHRA BR RMK A3008 RI009
RJFF 181818Z AUTO 00000KT 0200 R16/0500VP2000D +RA BR FEW006 SCT034 BKN036 15/13 Q1018 RMK A3008 RI037
RJFF 181806Z AUTO VRB01KT 1000 R16/2000N RA BR FEW008 SCT034 BKN041 //////TCU 15/13 Q1018 RMK A3008 RI004 TCU OHD AND 35KM NE MOV UNKNOWN
RJFF 181750Z AUTO VRB01KT 1700 RA BR FEW008 SCT031 BKN037 //////TCU 15/13 Q1018 RMK A3008 RI005 TCU 25KM SW MOV UNKNOWN
RJFF 181737Z AUTO VRB01KT 2200 RA BR FEW011 SCT028 BKN041 //////TCU 15/13 Q1018 RMK A3008 RI003 TCU 15KM W AND 25KM N MOV UNKNOWN
RJFF 181730Z AUTO VRB01KT 5000 -RA BR FEW011 SCT028 BKN032 //////TCU 15/13 Q1018 BECMG 31009KT RMK A3007 TCU OHD MOV UNKNOWN
RJFF 181707Z AUTO VRB02KT 8000 -RA FEW025 SCT028 BKN032 //////TCU 15/13 Q1018 RMK A3007 TCU 15KM W AND 20KM N-NE MOV UNKNOWN
RJFF 181700Z AUTO VRB02KT 6000 -RA FEW025 SCT028 BKN036 //////TCU 15/13 Q1018 NOSIG
RJFF 181630Z AUTO 01006KT 340V040 9999 FEW021 SCT029 BKN036 //////TCU 16/13 Q1018 NOSIG
RJFF 181600Z AUTO 34006KT 9999 -RA FEW026 SCT034 BKN038 //////TCU 16/13 Q1017 NOSIG RMK A3006 TCU OHD MOV UNKNOWN
RJFF 181550Z AUTO 31005KT 270V340 7000 -RA FEW011 SCT030 BKN034 //////TCU 16/14 Q1018 RMK A3006 TCU OHD MOV E AND 10KM W-NW MOV UNKNOWN
RJFF 181536Z AUTO 31007KT 280V350 1100 R16/P2000N -RA BR FEW011 SCT027 BKN030 //////TCU 16/14 Q1017 RMK A3005 TCU 15KM W AND 20KM NW AND 30KM N MOV UNKNOWN
RJFF 181530Z AUTO 30007KT 5000 -RA BR FEW011 SCT023 BKN027 //////CB 17/13 Q1017 NOSIG RMK A3005 CB OHD MOV UNKNOWN TCU 25KM NW AND FM 30KM N TO 35KM NE MOV UNKNOWN
RJFF 181500Z AUTO 16004KT 9999 FEW023 BKN026 //////TCU 16/12 Q1017 NOSIG RMK A3004 TCU 5KM NW MOV UNKNOWN
RJFF 181430Z AUTO 20003KT 170V270 9999 FEW035 SCT048 BKN060 //////CB 17/11 Q1017 NOSIG
RJFF 181400Z AUTO 25003KT 210V320 9999 FEW023 SCT042 BKN046 //////CB 17/12 Q1017 NOSIG RMK A3004 CB 15KM N-NE MOV UNKNOWN TCU 35KM NW MOV UNKNOWN
RJFF 181330Z 00000KT 9999 FEW025 SCT040 17/11 Q1017 TEMPO TL1400 4000 -TSRA BR
RJFF 181300Z 02003KT 330V090 9999 FEW025 17/11 Q1017 TEMPO TL1400 4000 -TSRA BR RMK 1CU025 A3003
RJFF 181230Z 35005KT 260V050 9999 FEW025 SCT030 BKN040 18/11 Q1016 TEMPO TL1400 4000 -TSRA BR
RJFF 181200Z 29004KT 250V330 9999 VCSH FEW030 BKN035 FEW040CB BKN045 19/12 Q1016 TEMPO 4000 -TSRA BR RMK 1CU030 5CU035 1CB040 6CU045 A3003 CB 12KM N-NE MOV E
RJFF 181130Z 30003KT 250V320 9999 TS VCSH FEW030 FEW040CB SCT045 BKN060 19/12 Q1016 TEMPO 4000 -TSRA BR
RJFF 181100Z VRB01KT 9999 FEW030 SCT045 18/12 Q1016 TEMPO 4000 -TSRA BR
RJFF 181030Z 07004KT 010V120 9999 FEW030 SCT040 BKN045 19/12 Q1016 BECMG 03005KT
RJFF 181000Z 05004KT 340V100 9999 FEW030 SCT040 BKN045 19/12 Q1016 NOSIG RMK 1CU030 3CU040 5CU045 A3001
RJFF 180930Z 36004KT 320V060 9999 FEW030 SCT045 20/12 Q1015 NOSIG RMK 1CU030 3CU045 A3000
RJFF 180900Z 34005KT 310V030 9999 FEW025 20/11 Q1015 NOSIG RMK 1CU025 A2999
RJFF 180830Z 35004KT 280V070 9999 FEW030 20/11 Q1015 NOSIG RMK 1CU030 A2999
RJFF 180800Z 31005KT 280V340 9999 FEW030 SCT040 20/11 Q1015 NOSIG RMK 1CU030 3CU040 A2999
RJFF 180730Z 32006KT 260V030 9999 FEW030 SCT045 21/11 Q1015 NOSIG RMK 1CU030 3CU045 A2998
RJFF 180700Z 33007KT 300V030 9999 FEW035 SCT040 20/11 Q1015 NOSIG RMK 1CU035 3CU040 A2998
RJFF 180630Z 31007KT 270V360 9999 FEW035 SCT040 21/11 Q1015 TEMPO FM0700 TL0800 -TSRA RMK 1CU035 3CU040 A2997
RJFF 180600Z VRB05KT 9999 FEW030 22/11 Q1014 BECMG 32008KT TEMPO FM0630 TS
RJFF 180530Z 32007KT 270V020 9999 FEW030 22/11 Q1014 NOSIG RMK 1CU030 A2996
RJFF 180500Z 32008KT 290V350 9999 FEW035 22/10 Q1014 NOSIG RMK 1CU035 A2996
RJFF 180430Z 35009KT 300V030 9999 FEW030 SCT045 22/12 Q1014 NOSIG RMK 1CU030 3CU045 A2996
RJFF 180400Z 32008KT 270V360 9999 FEW030 22/12 Q1014 NOSIG RMK 1CU030 A2997
RJFF 180330Z 33009KT 290V010 9999 FEW030 SCT035 22/13 Q1015 NOSIG RMK 1CU030 3CU035 A2998
RJFF 180300Z 31007KT 280V350 9999 FEW030 SCT035 22/11 Q1015 NOSIG RMK 1CU030 3CU035 A2999
RJFF 180230Z VRB04KT 9999 FEW030 SCT035 21/13 Q1015 BECMG TL0300 32008KT RMK 1CU030 4CU035 A2999
RJFF 180200Z 31006KT 260V330 9999 FEW030 SCT035 21/12 Q1015 NOSIG RMK 1CU030 4CU035 A3000
RJFF 180130Z VRB04KT 9999 FEW030 21/12 Q1015 BECMG TL0200 32008KT
RJFF 180100Z 16004KT 110V230 9999 FEW030 20/12 Q1016 BECMG TL0200 32008KT RMK 1CU030 A3001
RJFF 180030Z 16005KT 9999 FEW030 19/12 Q1016 BECMG 32008KT
RJFF 180000Z 15004KT 100V180 9999 FEW035 18/13 Q1016 BECMG TL0100 32008KT RMK 1CU035 A3001
RJFF 172330Z 17005KT 9999 FEW035 16/12 Q1016 BECMG FM0000 TL0100 32008KT
RJFF 172300Z 15005KT 9999 FEW030 15/12 Q1016 BECMG FM0000 35005KT
RJFF 172230Z 16004KT 9999 FEW035 15/12 Q1015 NOSIG RMK 1CU035 A3000
RJFF 172200Z 13001KT 9999 FEW035 14/11 Q1015 NOSIG RMK 1CU035 A2999
RJFF 172130Z VRB02KT 9999 FEW025 14/11 Q1015 BECMG TL2200 12005KT
RJFF 172100Z 12001KT 9999 FEW035 14/11 Q1015 NOSIG RMK 1CU035 A2997
RJFF 172030Z AUTO 13002KT 9999 //////TCU 14/11 Q1015 NOSIG
RJFF 172000Z AUTO 11003KT 9999 FEW041 14/11 Q1014 NOSIG RMK A2997
RJFF 171930Z AUTO 14003KT 9999 NCD 14/11 Q1014 NOSIG RMK A2997
RJFF 171900Z AUTO 14003KT 9999 NCD 13/11 Q1014 NOSIG RMK A2996